createdAt,value
2019-02-03T00:00:00.825Z,1.8
2019-02-03T00:01:01.335Z,1.7
2019-02-03T00:02:01.394Z,1.7
2019-02-03T00:03:01.327Z,1.7
2019-02-03T00:04:01.290Z,1.7
2019-02-03T00:05:01.233Z,1.7
2019-02-03T00:06:01.156Z,1.7
2019-02-03T00:07:04.158Z,1.7
2019-02-03T00:08:04.084Z,1.7
2019-02-03T00:09:04.153Z,1.7
2019-02-03T00:10:04.133Z,1.7
2019-02-03T00:11:05.067Z,1.7
2019-02-03T00:12:06.095Z,1.7
2019-02-03T00:13:06.029Z,1.7
2019-02-03T00:14:06.015Z,1.6
2019-02-03T00:15:05.957Z,1.6
2019-02-03T00:16:06.121Z,1.6
2019-02-03T00:17:06.233Z,1.6
2019-02-03T00:18:06.175Z,1.6
2019-02-03T00:19:06.103Z,1.6
2019-02-03T00:20:06.072Z,1.6
2019-02-03T00:21:06.480Z,1.6
2019-02-03T00:22:06.421Z,1.6
2019-02-03T00:23:06.362Z,1.6
2019-02-03T00:24:06.289Z,1.7
2019-02-03T00:25:06.216Z,1.7
2019-02-03T00:30:06.218Z,2
2019-02-03T00:31:06.674Z,2
2019-02-03T00:32:06.635Z,2
2019-02-03T00:33:06.567Z,2
2019-02-03T00:34:06.518Z,2
2019-02-03T00:35:06.459Z,2
2019-02-03T00:36:07.189Z,1.9
2019-02-03T00:37:18.891Z,1.9
2019-02-03T00:38:26.735Z,1.9
2019-02-03T00:39:26.954Z,1.9
2019-02-03T00:40:27.274Z,1.9
2019-02-03T00:41:28.253Z,1.8
2019-02-03T00:42:28.295Z,1.9
2019-02-03T00:43:28.242Z,1.8
2019-02-03T00:44:28.170Z,1.8
2019-02-03T00:45:28.104Z,1.8
2019-02-03T00:46:28.052Z,1.8
2019-02-03T00:47:29.906Z,1.8
2019-02-03T00:48:30.740Z,1.8
2019-02-03T00:49:30.677Z,1.7
2019-02-03T00:50:30.604Z,1.7
2019-02-03T00:51:31.036Z,1.7
2019-02-03T00:52:30.996Z,1.7
2019-02-03T00:53:30.930Z,1.7
2019-02-03T00:54:31.072Z,1.6
2019-02-03T00:55:31.326Z,1.6
2019-02-03T00:56:31.265Z,1.6
2019-02-03T00:57:33.059Z,1.6
2019-02-03T00:58:32.993Z,1.6
2019-02-03T00:59:32.921Z,1.6
2019-02-03T01:00:32.859Z,1.6
2019-02-03T01:01:33.242Z,1.6
2019-02-03T01:02:33.204Z,1.5
2019-02-03T01:03:33.123Z,1.5
2019-02-03T01:05:34.275Z,1.6
2019-02-03T01:06:34.209Z,1.8
2019-02-03T01:09:34.542Z,2
2019-02-03T01:11:34.829Z,2.1
2019-02-03T01:12:35.437Z,2.1
2019-02-03T01:13:36.045Z,2
2019-02-03T01:14:35.976Z,2
2019-02-03T01:15:35.915Z,2
2019-02-03T01:16:35.855Z,2
2019-02-03T01:17:36.825Z,2
2019-02-03T01:18:36.760Z,2
2019-02-03T01:19:36.812Z,1.9
2019-02-03T01:20:37.230Z,1.9
2019-02-03T01:21:37.635Z,1.8
2019-02-03T01:22:37.576Z,1.8
2019-02-03T01:23:37.503Z,1.8
2019-02-03T01:24:40.066Z,1.8
2019-02-03T01:25:40.067Z,1.7
2019-02-03T01:26:39.991Z,1.7
2019-02-03T01:27:39.918Z,1.7
2019-02-03T01:28:39.865Z,1.7
2019-02-03T01:29:40.361Z,1.6
2019-02-03T01:30:41.522Z,1.6
2019-02-03T01:31:41.911Z,1.6
2019-02-03T01:32:41.831Z,1.6
2019-02-03T01:33:41.776Z,1.6
2019-02-03T01:34:41.726Z,1.6
2019-02-03T01:35:41.660Z,1.6
2019-02-03T01:36:41.576Z,1.6
2019-02-03T01:37:42.852Z,1.5
2019-02-03T01:38:43.932Z,1.5
2019-02-03T01:39:43.875Z,1.5
2019-02-03T01:40:43.803Z,1.5
2019-02-03T01:41:44.209Z,1.4
2019-02-03T01:42:44.135Z,1.5
2019-02-03T01:43:44.116Z,1.5
2019-02-03T01:44:44.174Z,1.5
2019-02-03T01:45:44.114Z,1.6
2019-02-03T01:46:44.113Z,1.7
2019-02-03T01:49:46.465Z,1.9
2019-02-03T01:50:46.391Z,1.9
2019-02-03T01:51:46.762Z,2
2019-02-03T01:52:46.664Z,2
2019-02-03T01:53:46.573Z,2
2019-02-03T01:54:47.175Z,2
2019-02-03T01:55:48.157Z,1.9
2019-02-03T01:56:48.230Z,1.9
2019-02-03T01:57:48.163Z,1.9
2019-02-03T01:58:48.108Z,1.8
2019-02-03T01:59:48.191Z,1.8
2019-02-03T02:00:48.120Z,1.8
2019-02-03T02:01:48.532Z,1.7
2019-02-03T02:02:49.065Z,1.7
2019-02-03T02:03:49.107Z,1.7
2019-02-03T02:04:49.052Z,1.7
2019-02-03T02:05:49.029Z,1.6
2019-02-03T02:06:48.957Z,1.7
2019-02-03T02:07:52.672Z,1.6
2019-02-03T02:08:52.606Z,1.6
2019-02-03T02:09:55.479Z,1.6
2019-02-03T02:10:55.411Z,1.5
2019-02-03T02:11:56.249Z,1.5
2019-02-03T02:12:57.116Z,1.5
2019-02-03T02:13:57.062Z,1.5
2019-02-03T02:14:57.013Z,1.5
2019-02-03T02:15:56.930Z,1.5
2019-02-03T02:16:56.888Z,1.5
2019-02-03T02:17:57.044Z,1.5
2019-02-03T02:18:56.997Z,1.5
2019-02-03T02:19:57.398Z,1.5
2019-02-03T02:20:57.535Z,1.4
2019-02-03T02:21:57.942Z,1.4
2019-02-03T02:22:57.864Z,1.4
2019-02-03T02:23:57.792Z,1.4
2019-02-03T02:24:57.706Z,1.4
2019-02-03T02:25:57.742Z,1.4
2019-02-03T02:26:57.651Z,1.4
2019-02-03T02:27:57.594Z,1.4
2019-02-03T02:28:57.545Z,1.4
2019-02-03T02:29:57.473Z,1.4
2019-02-03T02:30:57.427Z,1.3
2019-02-03T02:31:57.922Z,1.3
2019-02-03T02:32:57.862Z,1.3
2019-02-03T02:33:57.811Z,1.3
2019-02-03T02:34:57.756Z,1.3
2019-02-03T02:35:57.964Z,1.4
2019-02-03T02:36:57.892Z,1.3
2019-02-03T02:38:08.145Z,1.3
2019-02-03T02:39:08.938Z,1.3
2019-02-03T02:40:14.046Z,1.3
2019-02-03T02:41:14.028Z,1.3
2019-02-03T02:42:14.465Z,1.3
2019-02-03T02:43:14.410Z,1.3
2019-02-03T02:44:14.458Z,1.3
2019-02-03T02:45:14.544Z,1.3
2019-02-03T02:46:14.822Z,1.3
2019-02-03T02:47:14.988Z,1.3
2019-02-03T02:48:14.902Z,1.3
2019-02-03T02:49:14.837Z,1.3
2019-02-03T02:50:14.774Z,1.3
2019-02-03T02:51:14.696Z,1.3
2019-02-03T02:52:15.904Z,1.3
2019-02-03T02:53:15.870Z,1.2
2019-02-03T02:54:15.814Z,1.3
2019-02-03T02:55:15.755Z,1.3
2019-02-03T02:56:15.702Z,1.3
2019-02-03T02:57:15.648Z,1.3
2019-02-03T02:58:15.572Z,1.3
2019-02-03T02:59:15.492Z,1.3
2019-02-03T03:00:18.261Z,1.3
2019-02-03T03:01:18.224Z,1.3
2019-02-03T03:02:18.634Z,1.3
2019-02-03T03:03:19.279Z,1.3
2019-02-03T03:04:20.138Z,1.3
2019-02-03T03:05:20.062Z,1.3
2019-02-03T03:06:19.991Z,1.3
2019-02-03T03:07:19.954Z,1.3
2019-02-03T03:08:20.478Z,1.3
2019-02-03T03:09:20.472Z,1.3
2019-02-03T03:10:20.581Z,1.3
2019-02-03T03:11:20.853Z,1.2
2019-02-03T03:12:21.238Z,1.3
2019-02-03T03:13:21.165Z,1.3
2019-02-03T03:14:21.102Z,1.3
2019-02-03T03:15:21.028Z,1.3
2019-02-03T03:16:20.954Z,1.3
2019-02-03T03:17:21.132Z,1.3
2019-02-03T03:18:21.114Z,1.3
2019-02-03T03:19:21.036Z,1.2
2019-02-03T03:20:20.958Z,1.2
2019-02-03T03:21:20.908Z,1.2
2019-02-03T03:22:21.316Z,1.2
2019-02-03T03:23:21.340Z,1.2
2019-02-03T03:24:21.304Z,1.2
2019-02-03T03:25:21.244Z,1.2
2019-02-03T03:26:21.192Z,1.3
2019-02-03T03:27:21.173Z,1.2
2019-02-03T03:28:21.164Z,1.2
2019-02-03T03:29:21.697Z,1.3
2019-02-03T03:30:21.687Z,1.3
2019-02-03T03:31:21.778Z,1.2
2019-02-03T03:32:22.954Z,1.3
2019-02-03T03:33:22.968Z,1.3
2019-02-03T03:34:22.924Z,1.3
2019-02-03T03:35:22.840Z,1.3
2019-02-03T03:36:23.469Z,1.3
2019-02-03T03:37:24.585Z,1.3
2019-02-03T03:38:33.069Z,1.2
2019-02-03T03:39:33.017Z,1.2
2019-02-03T03:40:32.951Z,1.2
2019-02-03T03:41:32.902Z,1.2
2019-02-03T03:42:34.530Z,1.1
2019-02-03T03:43:34.634Z,1.2
2019-02-03T03:44:34.576Z,1.1
2019-02-03T03:45:34.919Z,1.2
2019-02-03T03:46:34.855Z,1.3
2019-02-03T03:52:34.235Z,1.8
2019-02-03T03:53:34.198Z,1.8
2019-02-03T03:54:34.130Z,1.8
2019-02-03T03:55:34.051Z,1.7
2019-02-03T03:56:33.972Z,1.7
2019-02-03T03:57:33.915Z,1.7
2019-02-03T03:58:33.846Z,1.7
2019-02-03T03:59:33.750Z,1.7
2019-02-03T04:00:33.682Z,1.6
2019-02-03T04:01:33.651Z,1.6
2019-02-03T04:02:34.049Z,1.6
2019-02-03T04:03:34.386Z,1.5
2019-02-03T04:04:34.313Z,1.5
2019-02-03T04:05:34.236Z,1.5
2019-02-03T04:06:34.161Z,1.5
2019-02-03T04:07:34.094Z,1.4
2019-02-03T04:08:46.206Z,1.5
2019-02-03T04:09:46.121Z,1.4
2019-02-03T04:10:46.118Z,1.4
2019-02-03T04:11:46.587Z,1.4
2019-02-03T04:12:48.316Z,1.4
2019-02-03T04:13:48.317Z,1.3
2019-02-03T04:14:48.251Z,1.3
2019-02-03T04:15:48.171Z,1.3
2019-02-03T04:16:48.115Z,1.3
2019-02-03T04:17:48.135Z,1.3
2019-02-03T04:18:48.083Z,1.3
2019-02-03T04:19:48.455Z,1.3
2019-02-03T04:20:48.965Z,1.3
2019-02-03T04:21:48.889Z,1.3
2019-02-03T04:22:49.284Z,1.3
2019-02-03T04:23:49.286Z,1.2
2019-02-03T04:24:49.388Z,1.3
2019-02-03T04:25:49.336Z,1.3
2019-02-03T04:26:49.292Z,1.3
2019-02-03T04:27:49.721Z,1.3
2019-02-03T04:28:49.639Z,1.2
2019-02-03T04:29:49.558Z,1.3
2019-02-03T04:30:49.495Z,1.2
2019-02-03T04:31:49.629Z,1.3
2019-02-03T04:32:51.443Z,1.3
2019-02-03T04:33:51.385Z,1.3
2019-02-03T04:34:51.332Z,1.3
2019-02-03T04:35:51.430Z,1.2
2019-02-03T04:36:52.060Z,1.3
2019-02-03T04:37:53.319Z,1.2
2019-02-03T04:38:59.177Z,1.2
2019-02-03T04:39:59.094Z,1.2
2019-02-03T04:40:59.067Z,1.2
2019-02-03T04:41:58.985Z,1.2
2019-02-03T04:42:59.349Z,1.2
2019-02-03T04:43:59.306Z,1.1
2019-02-03T04:44:59.294Z,1.1
2019-02-03T04:45:59.843Z,1.1
2019-02-03T04:47:00.764Z,1.1
2019-02-03T04:48:00.725Z,1.1
2019-02-03T04:49:00.758Z,1.1
2019-02-03T04:50:00.882Z,1.1
2019-02-03T04:51:00.841Z,1.1
2019-02-03T04:52:00.776Z,1.1
2019-02-03T04:53:01.183Z,1.1
2019-02-03T04:54:01.681Z,1.1
2019-02-03T04:55:02.526Z,1.1
2019-02-03T04:56:02.460Z,1.1
2019-02-03T04:57:02.429Z,1.1
2019-02-03T04:58:02.471Z,1.1
2019-02-03T04:59:02.445Z,1.1
2019-02-03T05:00:02.357Z,1.1
2019-02-03T05:01:02.310Z,1.1
2019-02-03T05:02:02.849Z,1.1
2019-02-03T05:03:04.424Z,1.1
2019-02-03T05:04:04.345Z,1.1
2019-02-03T05:05:04.277Z,1.1
2019-02-03T05:06:04.212Z,1.1
2019-02-03T05:07:04.172Z,1.1
2019-02-03T05:08:04.083Z,1.1
2019-02-03T05:09:11.983Z,1.1
2019-02-03T05:10:11.941Z,1.1
2019-02-03T05:11:12.157Z,1.1
2019-02-03T05:12:12.140Z,1.1
2019-02-03T05:13:12.667Z,1.1
2019-02-03T05:14:12.616Z,1.1
2019-02-03T05:15:12.567Z,1.1
2019-02-03T05:16:12.517Z,1.1
2019-02-03T05:17:12.465Z,1.1
2019-02-03T05:18:12.400Z,1.1
2019-02-03T05:19:12.368Z,1.1
2019-02-03T05:20:12.322Z,1.1
2019-02-03T05:21:12.447Z,1.1
2019-02-03T05:22:12.400Z,1.1
2019-02-03T05:23:12.873Z,1.1
2019-02-03T05:24:12.795Z,1.1
2019-02-03T05:25:12.809Z,1.1
2019-02-03T05:26:12.813Z,1.2
2019-02-03T05:29:12.309Z,1.4
2019-02-03T05:33:12.001Z,1.7
2019-02-03T05:34:11.928Z,1.7
2019-02-03T05:35:12.153Z,1.7
2019-02-03T05:36:12.157Z,1.7
2019-02-03T05:37:12.102Z,1.6
2019-02-03T05:38:12.127Z,1.6
2019-02-03T05:39:26.059Z,1.6
2019-02-03T05:40:26.025Z,1.6
2019-02-03T05:41:25.975Z,1.5
2019-02-03T05:42:25.937Z,1.5
2019-02-03T05:43:26.608Z,1.5
2019-02-03T05:44:26.539Z,1.4
2019-02-03T05:45:27.084Z,1.4
2019-02-03T05:46:27.535Z,1.5
2019-02-03T05:47:27.485Z,1.5
2019-02-03T05:49:27.179Z,1.7
2019-02-03T05:51:26.862Z,1.8
2019-02-03T05:53:27.311Z,1.8
2019-02-03T05:54:27.242Z,1.9
2019-02-03T05:55:27.168Z,1.8
2019-02-03T05:56:27.102Z,1.8
2019-02-03T05:57:27.031Z,1.8
2019-02-03T05:58:26.972Z,1.7
2019-02-03T05:59:26.926Z,1.7
2019-02-03T06:00:26.848Z,1.7
2019-02-03T06:01:26.886Z,1.7
2019-02-03T06:02:26.831Z,1.6
2019-02-03T06:03:27.425Z,1.5
2019-02-03T06:04:27.352Z,1.5
2019-02-03T06:05:27.292Z,1.5
2019-02-03T06:06:27.236Z,1.5
2019-02-03T06:07:27.147Z,1.5
2019-02-03T06:08:27.104Z,1.5
2019-02-03T06:09:37.500Z,1.5
2019-02-03T06:10:37.465Z,1.4
2019-02-03T06:11:37.956Z,1.4
2019-02-03T06:12:39.152Z,1.3
2019-02-03T06:13:39.614Z,1.3
2019-02-03T06:14:39.546Z,1.2
2019-02-03T06:15:39.505Z,1.3
2019-02-03T06:16:39.441Z,1.2
2019-02-03T06:17:39.397Z,1.2
2019-02-03T06:18:39.352Z,1.2
2019-02-03T06:19:39.838Z,1.2
2019-02-03T06:20:40.934Z,1.2
2019-02-03T06:21:40.856Z,1.2
2019-02-03T06:22:40.782Z,1.2
2019-02-03T06:23:41.237Z,1.2
2019-02-03T06:24:41.256Z,1.2
2019-02-03T06:25:41.196Z,1.2
2019-02-03T06:26:41.130Z,1.2
2019-02-03T06:27:41.617Z,1.2
2019-02-03T06:28:41.851Z,1.2
2019-02-03T06:29:41.786Z,1.2
2019-02-03T06:30:41.833Z,1.2
2019-02-03T06:31:41.744Z,1.2
2019-02-03T06:32:41.652Z,1.2
2019-02-03T06:33:42.220Z,1.2
2019-02-03T06:34:42.168Z,1.2
2019-02-03T06:35:42.097Z,1.2
2019-02-03T06:36:42.032Z,1.2
2019-02-03T06:37:42.156Z,1.2
2019-02-03T06:38:42.096Z,1.1
2019-02-03T06:39:49.436Z,1.1
2019-02-03T06:40:49.415Z,1.1
2019-02-03T06:41:49.348Z,1.1
2019-02-03T06:42:49.280Z,1.1
2019-02-03T06:43:49.702Z,1.1
2019-02-03T06:44:49.675Z,1.1
2019-02-03T06:45:50.259Z,1.1
2019-02-03T06:46:51.225Z,1.1
2019-02-03T06:47:51.166Z,1.1
2019-02-03T06:48:51.135Z,1.1
2019-02-03T06:49:51.190Z,1.1
2019-02-03T06:50:51.105Z,1.2
2019-02-03T06:51:51.032Z,1.1
2019-02-03T06:52:50.964Z,1.1
2019-02-03T06:53:51.975Z,1.1
2019-02-03T06:54:52.942Z,1.1
2019-02-03T06:55:52.860Z,1.1
2019-02-03T06:57:52.582Z,1.3
2019-02-03T06:59:52.300Z,1.5
2019-02-03T07:01:52.583Z,1.6
2019-02-03T07:03:53.796Z,1.7
2019-02-03T07:05:53.589Z,1.8
2019-02-03T07:06:53.538Z,1.8
2019-02-03T07:08:53.248Z,1.9
2019-02-03T07:10:01.575Z,2
2019-02-03T07:11:01.932Z,2
2019-02-03T07:12:02.788Z,2
2019-02-03T07:13:02.744Z,2
2019-02-03T07:14:03.150Z,2
2019-02-03T07:15:03.080Z,2
2019-02-03T07:16:03.011Z,1.9
2019-02-03T07:17:02.936Z,1.9
2019-02-03T07:18:02.878Z,1.9
2019-02-03T07:19:03.382Z,1.9
2019-02-03T07:20:03.951Z,1.8
2019-02-03T07:21:03.892Z,1.8
2019-02-03T07:22:03.827Z,1.8
2019-02-03T07:23:03.757Z,1.8
2019-02-03T07:24:05.233Z,1.7
2019-02-03T07:25:05.197Z,1.6
2019-02-03T07:26:05.106Z,1.6
2019-02-03T07:27:05.016Z,1.6
2019-02-03T07:28:04.951Z,1.6
2019-02-03T07:29:05.849Z,1.5
2019-02-03T07:30:05.786Z,1.5
2019-02-03T07:31:05.768Z,1.5
2019-02-03T07:32:05.681Z,1.5
2019-02-03T07:33:05.632Z,1.5
2019-02-03T07:34:06.044Z,1.5
2019-02-03T07:35:05.997Z,1.5
2019-02-03T07:36:07.581Z,1.4
2019-02-03T07:37:08.510Z,1.4
2019-02-03T07:38:11.276Z,1.4
2019-02-03T07:39:11.225Z,1.4
2019-02-03T07:40:13.384Z,1.4
2019-02-03T07:41:13.356Z,1.4
2019-02-03T07:42:13.288Z,1.3
2019-02-03T07:43:13.217Z,1.3
2019-02-03T07:44:13.600Z,1.3
2019-02-03T07:45:14.299Z,1.3
2019-02-03T07:46:15.600Z,1.4
2019-02-03T07:47:15.544Z,1.4
2019-02-03T07:48:15.612Z,1.5
2019-02-03T07:51:15.090Z,1.4
2019-02-03T07:52:15.053Z,1.6
2019-02-03T07:54:16.930Z,1.7
2019-02-03T07:55:16.887Z,1.7
2019-02-03T07:56:16.838Z,1.7
2019-02-03T07:57:17.845Z,1.8
2019-02-03T07:58:17.905Z,1.7
2019-02-03T07:59:18.063Z,1.7
2019-02-03T08:00:17.981Z,1.6
2019-02-03T08:01:18.277Z,1.6
2019-02-03T08:02:19.049Z,1.6
2019-02-03T08:03:19.019Z,1.6
2019-02-03T08:04:19.419Z,1.6
2019-02-03T08:05:19.361Z,1.6
2019-02-03T08:06:19.311Z,1.5
2019-02-03T08:07:19.415Z,1.5
2019-02-03T08:08:19.395Z,1.4
2019-02-03T08:09:19.900Z,1.5
2019-02-03T08:10:30.148Z,1.4
2019-02-03T08:11:30.117Z,1.4
2019-02-03T08:12:30.069Z,1.4
2019-02-03T08:13:30.009Z,1.4
2019-02-03T08:14:30.407Z,1.4
2019-02-03T08:15:30.363Z,1.4
2019-02-03T08:16:30.335Z,1.4
2019-02-03T08:17:30.273Z,1.4
2019-02-03T08:18:30.209Z,1.4
2019-02-03T08:19:30.112Z,1.4
2019-02-03T08:20:30.080Z,1.4
2019-02-03T08:21:30.025Z,1.4
2019-02-03T08:22:30.003Z,1.4
2019-02-03T08:23:29.931Z,1.3
2019-02-03T08:24:30.355Z,1.3
2019-02-03T08:25:30.280Z,1.3
2019-02-03T08:26:30.391Z,1.3
2019-02-03T08:27:30.327Z,1.3
2019-02-03T08:28:30.239Z,1.3
2019-02-03T08:29:30.163Z,1.2
2019-02-03T08:30:30.107Z,1.2
2019-02-03T08:31:30.142Z,1.2
2019-02-03T08:32:30.123Z,1.3
2019-02-03T08:33:30.085Z,1.3
2019-02-03T08:34:30.975Z,1.3
2019-02-03T08:35:30.991Z,1.2
2019-02-03T08:36:30.928Z,1.3
2019-02-03T08:37:30.887Z,1.3
2019-02-03T08:38:30.857Z,1.4
2019-02-03T08:39:30.817Z,1.6
2019-02-03T08:41:37.915Z,1.8
2019-02-03T08:44:39.050Z,1.9
2019-02-03T08:45:39.033Z,2
2019-02-03T08:46:38.973Z,2
2019-02-03T08:47:38.917Z,2
2019-02-03T08:48:38.831Z,2.1
2019-02-03T08:50:41.991Z,2.1
2019-02-03T08:51:41.917Z,2.1
2019-02-03T08:52:42.077Z,2.1
2019-02-03T08:53:43.259Z,2.1
2019-02-03T08:54:59.025Z,2.1
2019-02-03T08:56:00.167Z,2.1
2019-02-03T08:57:00.090Z,2.1
2019-02-03T08:58:00.041Z,2.1
2019-02-03T08:59:00.105Z,2.1
2019-02-03T09:00:00.303Z,2.1
2019-02-03T09:01:00.283Z,2.1
2019-02-03T09:02:00.204Z,2.1
2019-02-03T09:03:00.834Z,2.1
2019-02-03T09:04:02.172Z,2
2019-02-03T09:05:02.555Z,2
2019-02-03T09:06:02.499Z,1.9
2019-02-03T09:07:02.476Z,1.9
2019-02-03T09:08:02.425Z,1.9
2019-02-03T09:09:02.369Z,1.8
2019-02-03T09:10:02.296Z,1.8
2019-02-03T09:11:02.723Z,1.8
2019-02-03T09:12:03.461Z,1.8
2019-02-03T09:13:03.641Z,1.7
2019-02-03T09:14:03.621Z,1.7
2019-02-03T09:15:04.026Z,1.7
2019-02-03T09:16:03.987Z,1.7
2019-02-03T09:17:03.921Z,1.6
2019-02-03T09:18:03.853Z,1.7
2019-02-03T09:19:04.094Z,1.7
2019-02-03T09:20:04.061Z,1.6
2019-02-03T09:21:03.992Z,1.6
2019-02-03T09:22:03.945Z,1.6
2019-02-03T09:23:03.888Z,1.6
2019-02-03T09:24:03.841Z,1.6
2019-02-03T09:25:04.241Z,1.6
2019-02-03T09:26:04.179Z,1.6
2019-02-03T09:27:04.536Z,1.7
2019-02-03T09:28:04.725Z,1.6
2019-02-03T09:29:04.752Z,1.7
2019-02-03T09:30:04.698Z,1.6
2019-02-03T09:31:04.615Z,1.7
2019-02-03T09:32:04.612Z,1.7
2019-02-03T09:33:04.555Z,1.7
2019-02-03T09:34:04.544Z,1.7
2019-02-03T09:35:05.497Z,1.7
2019-02-03T09:36:05.446Z,1.7
2019-02-03T09:37:05.489Z,1.7
2019-02-03T09:38:05.561Z,1.7
2019-02-03T09:39:05.495Z,1.7
2019-02-03T09:40:05.421Z,1.7
2019-02-03T09:41:05.437Z,1.7
2019-02-03T09:42:05.380Z,1.7
2019-02-03T09:43:08.347Z,1.7
2019-02-03T09:44:08.951Z,1.7
2019-02-03T09:45:10.948Z,1.7
2019-02-03T09:46:10.917Z,1.7
2019-02-03T09:47:11.095Z,1.7
2019-02-03T09:48:11.055Z,1.7
2019-02-03T09:49:11.001Z,1.7
2019-02-03T09:50:11.063Z,1.7
2019-02-03T09:51:11.032Z,1.7
2019-02-03T09:52:11.467Z,1.7
2019-02-03T09:53:12.494Z,1.7
2019-02-03T09:54:12.441Z,1.7
2019-02-03T09:55:12.859Z,1.7
2019-02-03T09:56:12.901Z,1.7
2019-02-03T09:57:12.996Z,1.7
2019-02-03T09:58:13.368Z,1.7
2019-02-03T09:59:13.432Z,1.6
2019-02-03T10:00:14.059Z,1.6
2019-02-03T10:01:14.994Z,1.8
2019-02-03T10:02:15.097Z,1.8
2019-02-03T10:05:16.818Z,1.7
2019-02-03T10:06:16.948Z,1.8
2019-02-03T10:07:17.150Z,1.8
2019-02-03T10:08:20.369Z,1.6
2019-02-03T10:09:21.014Z,1.5
2019-02-03T10:10:22.119Z,1.5
2019-02-03T10:11:23.687Z,1.5
2019-02-03T10:12:23.807Z,1.5
2019-02-03T10:13:23.901Z,1.5
2019-02-03T10:14:24.189Z,1.4
2019-02-03T10:15:24.955Z,1.3
2019-02-03T10:16:25.189Z,1.4
2019-02-03T10:17:25.533Z,1.4
2019-02-03T10:18:25.917Z,1.3
2019-02-03T10:19:27.285Z,1.3
2019-02-03T10:20:27.489Z,1.3
2019-02-03T10:21:27.599Z,1.3
2019-02-03T10:22:27.761Z,1.3
2019-02-03T10:23:27.872Z,1.3
2019-02-03T10:24:28.035Z,1.3
2019-02-03T10:25:28.699Z,1.3
2019-02-03T10:26:29.594Z,1.3
2019-02-03T10:27:30.463Z,1.4
2019-02-03T10:28:30.852Z,1.4
2019-02-03T10:29:30.993Z,1.5
2019-02-03T10:30:31.116Z,1.7
2019-02-03T10:31:31.278Z,1.7
2019-02-03T10:32:31.415Z,1.8
2019-02-03T10:34:31.438Z,1.9
2019-02-03T10:35:32.295Z,2
2019-02-03T10:36:32.604Z,2.1
2019-02-03T10:37:32.554Z,2.1
2019-02-03T10:38:32.501Z,2.1
2019-02-03T10:39:33.733Z,2.1
2019-02-03T10:40:33.666Z,2.2
2019-02-03T10:41:33.651Z,2.2
2019-02-03T10:42:33.616Z,2.2
2019-02-03T10:43:34.491Z,2.2
2019-02-03T10:44:35.773Z,2.3
2019-02-03T10:45:36.189Z,2.3
2019-02-03T10:46:36.170Z,2.2
2019-02-03T10:47:36.347Z,2.3
2019-02-03T10:48:36.297Z,2.3
2019-02-03T10:49:36.239Z,2.2
2019-02-03T10:50:36.845Z,2.2
2019-02-03T10:51:36.827Z,2.3
2019-02-03T10:52:36.779Z,2.2
2019-02-03T10:53:36.958Z,2.2
2019-02-03T10:54:36.915Z,2.1
2019-02-03T10:55:39.325Z,2.1
2019-02-03T10:56:39.505Z,2.1
2019-02-03T10:57:39.493Z,2.1
2019-02-03T10:58:39.492Z,2
2019-02-03T10:59:39.635Z,2
2019-02-03T11:00:40.951Z,1.9
2019-02-03T11:01:40.935Z,1.8
2019-02-03T11:02:40.895Z,1.8
2019-02-03T11:03:50.104Z,1.7
2019-02-03T11:04:53.063Z,1.7
2019-02-03T11:05:54.874Z,1.7
2019-02-03T11:06:55.885Z,1.6
2019-02-03T11:07:55.861Z,1.5
2019-02-03T11:08:56.101Z,1.4
2019-02-03T11:09:56.555Z,1.5
2019-02-03T11:10:56.769Z,1.7
2019-02-03T11:11:56.787Z,1.7
2019-02-03T11:12:56.770Z,1.8
2019-02-03T11:14:56.519Z,1.9
2019-02-03T11:15:57.021Z,2
2019-02-03T11:17:00.292Z,2
2019-02-03T11:18:00.993Z,2
2019-02-03T11:19:00.964Z,2
2019-02-03T11:20:00.945Z,2
2019-02-03T11:21:00.995Z,1.8
2019-02-03T11:22:02.034Z,1.8
2019-02-03T11:23:05.186Z,1.6
2019-02-03T11:24:05.226Z,1.4
2019-02-03T11:25:05.853Z,1.2
2019-02-03T11:26:06.587Z,1.2
2019-02-03T11:27:06.625Z,1.1
2019-02-03T11:28:06.675Z,1
2019-02-03T11:29:06.792Z,1
2019-02-03T11:30:06.770Z,1.1
2019-02-03T11:31:06.772Z,1.1
2019-02-03T11:32:06.825Z,1.1
2019-02-03T11:33:10.608Z,1.2
2019-02-03T11:34:10.617Z,1.2
2019-02-03T11:35:10.629Z,1.2
2019-02-03T11:36:11.299Z,1.2
2019-02-03T11:37:11.307Z,1.1
2019-02-03T11:38:11.319Z,1.1
2019-02-03T11:39:11.332Z,1
2019-02-03T11:41:11.783Z,1.3
2019-02-03T11:43:12.172Z,1.5
2019-02-03T11:45:11.916Z,1.6
2019-02-03T11:46:13.656Z,1.6
2019-02-03T11:47:13.630Z,1.6
2019-02-03T11:48:13.621Z,1.5
2019-02-03T11:49:14.200Z,1.5
2019-02-03T11:50:14.152Z,1.5
2019-02-03T11:51:14.110Z,1.5
2019-02-03T11:52:14.098Z,1.5
2019-02-03T11:53:14.064Z,1.4
2019-02-03T11:54:14.041Z,1.4
2019-02-03T11:55:14.103Z,1.4
2019-02-03T11:56:14.816Z,1.2
2019-02-03T11:57:14.778Z,1.2
2019-02-03T11:58:14.693Z,1.2
2019-02-03T11:59:14.677Z,1.3
2019-02-03T12:00:14.859Z,1.3
2019-02-03T12:01:17.176Z,1.3
2019-02-03T12:02:17.185Z,1.3
2019-02-03T12:03:17.130Z,1.2
2019-02-03T12:04:17.102Z,1.2
2019-02-03T12:05:19.855Z,1.2
2019-02-03T12:06:20.438Z,1.2
2019-02-03T12:07:20.368Z,1.1
2019-02-03T12:08:20.634Z,1.1
2019-02-03T12:09:20.634Z,1.1
2019-02-03T12:10:20.796Z,1.1
2019-02-03T12:11:20.732Z,1.2
2019-02-03T12:12:20.682Z,1.1
2019-02-03T12:13:20.600Z,1
2019-02-03T12:14:20.524Z,0.7
2019-02-03T12:15:21.179Z,0.5
2019-02-03T12:16:22.886Z,0.6
2019-02-03T12:17:23.876Z,0.5
2019-02-03T12:18:23.827Z,0.7
2019-02-03T12:19:23.744Z,0.7
2019-02-03T12:20:23.724Z,0.7
2019-02-03T12:21:23.660Z,0.6
2019-02-03T12:22:23.635Z,0.6
2019-02-03T12:23:24.050Z,0.5
2019-02-03T12:24:24.544Z,0.6
2019-02-03T12:25:24.989Z,0.6
2019-02-03T12:26:25.508Z,0.8
2019-02-03T12:27:25.512Z,0.8
2019-02-03T12:28:25.432Z,0.8
2019-02-03T12:29:25.342Z,0.8
2019-02-03T12:30:28.731Z,0.6
2019-02-03T12:31:29.440Z,0.4
2019-02-03T12:32:30.102Z,0.4
2019-02-03T12:33:30.877Z,0.4
2019-02-03T12:34:31.040Z,0.4
2019-02-03T12:35:30.993Z,0.5
2019-02-03T12:36:31.678Z,0.4
2019-02-03T12:37:31.635Z,0.3
2019-02-03T12:38:31.591Z,0.3
2019-02-03T12:39:31.666Z,0.3
2019-02-03T12:40:31.672Z,0.3
2019-02-03T12:41:32.318Z,0.1
2019-02-03T12:42:33.332Z,0.1
2019-02-03T12:43:33.529Z,0.1
2019-02-03T12:44:33.446Z,0
2019-02-03T12:45:33.406Z,0
2019-02-03T12:46:34.082Z,0
2019-02-03T12:47:34.009Z,0
2019-02-03T12:48:33.967Z,0.1
2019-02-03T12:49:34.562Z,0.1
2019-02-03T12:50:35.566Z,0.2
2019-02-03T12:51:35.812Z,0.1
2019-02-03T12:52:35.815Z,0.2
2019-02-03T12:53:35.760Z,0.3
2019-02-03T12:54:35.676Z,0.2
2019-02-03T12:55:35.604Z,0.2
2019-02-03T12:56:36.062Z,0.2
2019-02-03T12:57:36.668Z,0.2
2019-02-03T12:58:37.704Z,0.3
2019-02-03T12:59:37.654Z,0.3
2019-02-03T13:00:37.584Z,0.3
2019-02-03T13:01:37.540Z,0.3
2019-02-03T13:02:37.488Z,0.3
2019-02-03T13:03:37.420Z,0.4
2019-02-03T13:04:37.502Z,0.4
2019-02-03T13:05:37.998Z,0.5
2019-02-03T13:06:39.605Z,0.5
2019-02-03T13:07:39.532Z,0.5
2019-02-03T13:08:39.736Z,0.6
2019-02-03T13:09:39.707Z,0.6
2019-02-03T13:10:39.880Z,0.6
2019-02-03T13:11:39.841Z,0.6
2019-02-03T13:12:39.796Z,0.7
2019-02-03T13:13:39.725Z,0.6
2019-02-03T13:14:39.915Z,0.7
2019-02-03T13:15:41.366Z,0.7
2019-02-03T13:16:41.827Z,0.7
2019-02-03T13:17:41.772Z,0.7
2019-02-03T13:18:45.580Z,0.7
2019-02-03T13:19:45.514Z,0.7
2019-02-03T13:20:45.464Z,0.7
2019-02-03T13:21:45.430Z,0.7
2019-02-03T13:22:45.386Z,0.7
2019-02-03T13:23:45.898Z,0.7
2019-02-03T13:24:45.837Z,0.7
2019-02-03T13:25:45.782Z,0.7
2019-02-03T13:26:46.974Z,0.7
2019-02-03T13:27:46.911Z,0.7
2019-02-03T13:28:46.851Z,0.7
2019-02-03T13:29:49.817Z,0.7
2019-02-03T13:30:49.860Z,0.6
2019-02-03T13:31:50.237Z,0.7
2019-02-03T13:32:50.365Z,0.7
2019-02-03T13:33:50.633Z,0.7
2019-02-03T13:34:50.708Z,0.7
2019-02-03T13:35:53.881Z,0.7
2019-02-03T13:36:54.538Z,0.8
2019-02-03T13:37:56.146Z,0.8
2019-02-03T13:38:56.827Z,0.7
2019-02-03T13:39:56.773Z,0.7
2019-02-03T13:40:57.108Z,0.8
2019-02-03T13:41:58.977Z,0.8
2019-02-03T13:42:59.789Z,0.8
2019-02-03T13:43:59.693Z,0.7
2019-02-03T13:45:05.814Z,0.6
2019-02-03T13:46:06.003Z,0.7
2019-02-03T13:47:07.397Z,0.6
2019-02-03T13:48:07.339Z,0.7
2019-02-03T13:49:07.286Z,0.6
2019-02-03T13:50:07.339Z,0.5
2019-02-03T13:51:08.036Z,0.5
2019-02-03T13:52:09.298Z,0.6
2019-02-03T13:53:09.226Z,0.5
2019-02-03T13:54:09.174Z,0.4
2019-02-03T13:55:09.439Z,0.3
2019-02-03T13:56:09.394Z,0.3
2019-02-03T13:57:09.947Z,0.2
2019-02-03T13:58:09.922Z,0
2019-02-03T13:59:10.345Z,0.1
2019-02-03T14:00:10.287Z,0.2
2019-02-03T14:01:10.803Z,0.2
2019-02-03T14:02:10.735Z,0.2
2019-02-03T14:03:10.726Z,0.1
2019-02-03T14:04:10.653Z,0.1
2019-02-03T14:05:10.607Z,-0.1
2019-02-03T14:06:10.570Z,-0.3
2019-02-03T14:07:11.050Z,-0.3
2019-02-03T14:08:11.641Z,-0.4
2019-02-03T14:09:13.011Z,-0.4
2019-02-03T14:10:13.043Z,-0.4
2019-02-03T14:11:13.021Z,-0.4
2019-02-03T14:12:12.969Z,-0.4
2019-02-03T14:13:12.943Z,-0.3
2019-02-03T14:14:12.909Z,-0.2
2019-02-03T14:15:12.861Z,-0.2
2019-02-03T14:16:13.271Z,-0.2
2019-02-03T14:17:14.591Z,-0.2
2019-02-03T14:18:14.610Z,-0.1
2019-02-03T14:26:13.323Z,0.4
2019-02-03T14:27:13.749Z,0.4
2019-02-03T14:28:13.707Z,0.4
2019-02-03T14:29:13.671Z,0.3
2019-02-03T14:30:13.617Z,0.3
2019-02-03T14:31:13.804Z,0.3
2019-02-03T14:32:13.757Z,0.2
2019-02-03T14:33:13.683Z,0.2
2019-02-03T14:34:13.683Z,0.2
2019-02-03T14:35:13.635Z,0.3
2019-02-03T14:36:13.597Z,0.3
2019-02-03T14:37:14.863Z,0.3
2019-02-03T14:38:14.793Z,0.3
2019-02-03T14:39:14.759Z,0.2
2019-02-03T14:40:14.681Z,0.2
2019-02-03T14:41:14.614Z,0.1
2019-02-03T14:42:15.651Z,0.2
2019-02-03T14:43:15.602Z,0.1
2019-02-03T14:44:15.576Z,0